Brumley, MO

11:06 PM CST on February 06, 2016 (GMT -0600)
Fine Memorial

Weather History for KAIZ - April, 2014

Change the Weather History Date:

Tuesday, April 29, 2014

  Actual Average (WUND) Record (WUND)
Temperature  
Mean Temperature 53 °F -  
Max Temperature 60 °F - - (-1)
Min Temperature 46 °F - - (-1)
Degree Days  
Heating Degree Days 12    
Growing Degree Days 3 (Base 50)    
Moisture  
Dew Point 38 °F    
Average Humidity 62    
Maximum Humidity 87    
Minimum Humidity 31    
Precipitation  
Precipitation 0.00 in - - ()
Sea Level Pressure  
Sea Level Pressure 29.61 in    
Wind  
Wind Speed 14 mph (SW)    
Max Wind Speed 22 mph    
Max Gust Speed 31 mph    
Visibility 10 miles    
Events      
Averages and records for this station are not official NWS values.
T = Trace of Precipitation, MM = Missing Value Source: NWS Daily Summary

Daily Weather History Graph

Daily Weather History Graph

Search for Another Location

Airport or City:

Trip Planner

Search our weather history database for the weather conditions in past years. The results will help you decide how hot, cold, wet, or windy it might be!

Date:

Astronomy

Apr. 29, 2014 Rise Set
Actual Time 6:16 AM CDT 7:59 PM CDT
Civil Twilight 5:48 AM CDT 8:27 PM CDT
Nautical Twilight 5:13 AM CDT 9:01 PM CDT
Astronomical Twilight 4:37 AM CDT 9:38 PM CDT
Moon 6:34 AM CDT (4/29) 8:39 PM CDT (4/29)
Length of Visible Light 14h 39m
Length of Day
13h 43m
New Moon, 0% of the Moon is Illuminated
Apr 29
New Moon
May 6
First Quarter
May 14
Full
May 21
Last Quarter
May 28
New

Hourly Weather History & Observations

Time (CDT) Temp. Windchill Dew Point Humidity Pressure Visibility Wind Dir Wind Speed Gust Speed Precip Events Conditions
12:15 AM 60.8 °F - 30.2 °F 31% 29.51 in 10.0 mi WSW 13.8 mph 23.0 mph N/A   Clear
12:35 AM 59.0 °F - 30.2 °F 34% 29.51 in 10.0 mi SW 16.1 mph 23.0 mph N/A   Clear
12:55 AM 57.2 °F - 30.2 °F 36% 29.51 in 10.0 mi SW 19.6 mph 28.8 mph N/A   Clear
1:15 AM 57.2 °F - 32.0 °F 38% 29.51 in 10.0 mi SW 16.1 mph 24.2 mph N/A   Clear
1:35 AM 55.4 °F - 33.8 °F 44% 29.50 in 10.0 mi SW 17.3 mph 25.3 mph N/A   Clear
1:55 AM 55.4 °F - 33.8 °F 44% 29.50 in 10.0 mi SW 11.5 mph 26.5 mph N/A   Clear
2:15 AM 55.4 °F - 33.8 °F 44% 29.49 in 10.0 mi WSW 16.1 mph 26.5 mph N/A   Clear
2:35 AM 53.6 °F - 33.8 °F 47% 29.50 in 10.0 mi SSW 20.7 mph 27.6 mph N/A   Clear
2:55 AM 53.6 °F - 33.8 °F 47% 29.50 in 10.0 mi SW 15.0 mph 24.2 mph N/A   Scattered Clouds
3:15 AM 53.6 °F - 35.6 °F 51% 29.49 in 10.0 mi WSW 12.7 mph 19.6 mph N/A   Overcast
3:35 AM 53.6 °F - 35.6 °F 51% 29.49 in 10.0 mi SW 11.5 mph - N/A   Overcast
3:55 AM 53.6 °F - 35.6 °F 51% 29.50 in 10.0 mi WSW 12.7 mph 20.7 mph N/A   Overcast
4:15 AM 53.6 °F - 35.6 °F 51% 29.50 in 10.0 mi WSW 20.7 mph 26.5 mph N/A   Overcast
4:35 AM 51.8 °F - 35.6 °F 54% 29.50 in 10.0 mi WSW 12.7 mph 23.0 mph N/A   Overcast
4:55 AM 51.8 °F - 35.6 °F 54% 29.50 in 10.0 mi WSW 17.3 mph 25.3 mph N/A   Overcast
5:15 AM 51.8 °F - 35.6 °F 54% 29.50 in 10.0 mi WSW 13.8 mph 27.6 mph N/A   Overcast
5:35 AM 51.8 °F - 35.6 °F 54% 29.50 in 10.0 mi SW 15.0 mph 25.3 mph N/A   Overcast
5:55 AM 51.8 °F - 35.6 °F 54% 29.50 in 10.0 mi WSW 16.1 mph 24.2 mph N/A   Overcast
6:15 AM 51.8 °F - 37.4 °F 58% 29.51 in 10.0 mi SW 15.0 mph 21.9 mph N/A   Overcast
6:35 AM 51.8 °F - 37.4 °F 58% 29.52 in 10.0 mi West 12.7 mph 25.3 mph N/A   Overcast
6:55 AM 51.8 °F - 37.4 °F 58% 29.51 in 10.0 mi WSW 11.5 mph 17.3 mph N/A   Overcast
7:15 AM 51.8 °F - 37.4 °F 58% 29.52 in 10.0 mi WSW 9.2 mph 17.3 mph N/A   Overcast
7:35 AM 51.8 °F - 37.4 °F 58% 29.52 in 10.0 mi SW 16.1 mph 20.7 mph N/A   Overcast
7:55 AM 51.8 °F - 37.4 °F 58% 29.52 in 10.0 mi SW 10.4 mph 20.7 mph N/A   Overcast
8:15 AM 51.8 °F - 37.4 °F 58% 29.53 in 10.0 mi SW 9.2 mph 17.3 mph N/A   Overcast
8:35 AM 51.8 °F - 37.4 °F 58% 29.54 in 10.0 mi SW 17.3 mph 25.3 mph N/A   Overcast
8:55 AM 51.8 °F - 37.4 °F 58% 29.54 in 10.0 mi SW 12.7 mph 23.0 mph N/A   Overcast
9:15 AM 53.6 °F - 37.4 °F 54% 29.54 in 10.0 mi SW 9.2 mph 17.3 mph N/A   Overcast
9:35 AM 53.6 °F - 37.4 °F 54% 29.54 in 10.0 mi SW 15.0 mph 19.6 mph N/A   Overcast
9:55 AM 53.6 °F - 39.2 °F 58% 29.54 in 10.0 mi WSW 16.1 mph 23.0 mph N/A   Overcast
10:15 AM 53.6 °F - 37.4 °F 54% 29.55 in 10.0 mi SW 13.8 mph 18.4 mph N/A   Overcast
10:35 AM 53.6 °F - 37.4 °F 54% 29.56 in 10.0 mi SW 17.3 mph 23.0 mph N/A   Overcast
10:55 AM 53.6 °F - 37.4 °F 54% 29.57 in 10.0 mi SW 16.1 mph 23.0 mph N/A   Overcast
11:15 AM 51.8 °F - 37.4 °F 58% 29.58 in 10.0 mi SW 13.8 mph 24.2 mph N/A   Overcast
11:35 AM 51.8 °F - 37.4 °F 58% 29.58 in 10.0 mi WSW 12.7 mph 18.4 mph N/A   Overcast
11:55 AM 53.6 °F - 37.4 °F 54% 29.58 in 10.0 mi SW 11.5 mph 18.4 mph N/A   Overcast
12:15 PM 53.6 °F - 37.4 °F 54% 29.58 in 10.0 mi SW 16.1 mph 27.6 mph N/A   Overcast
12:35 PM 53.6 °F - 37.4 °F 54% 29.59 in 10.0 mi SW 16.1 mph 23.0 mph N/A   Overcast
12:55 PM 53.6 °F - 37.4 °F 54% 29.60 in 10.0 mi SW 17.3 mph 31.1 mph N/A   Overcast
1:15 PM 51.8 °F - 35.6 °F 54% 29.61 in 10.0 mi SW 21.9 mph 27.6 mph N/A   Overcast
1:35 PM 51.8 °F - 37.4 °F 58% 29.62 in 10.0 mi SW 16.1 mph 26.5 mph N/A   Overcast
1:55 PM 51.8 °F - 37.4 °F 58% 29.63 in 10.0 mi WSW 11.5 mph 27.6 mph N/A   Overcast
2:15 PM 50.0 °F - 37.4 °F 62% 29.64 in 10.0 mi SW 17.3 mph 23.0 mph N/A   Overcast
2:35 PM 48.2 °F - 39.2 °F 71% 29.66 in 10.0 mi SW 10.4 mph 20.7 mph N/A   Overcast
2:55 PM 48.2 °F - 39.2 °F 71% 29.66 in 10.0 mi SW 13.8 mph 20.7 mph N/A   Overcast
3:15 PM 48.2 °F - 41.0 °F 76% 29.66 in 10.0 mi SW 12.7 mph 19.6 mph N/A   Overcast
3:35 PM 50.0 °F - 39.2 °F 66% 29.66 in 10.0 mi SW 15.0 mph 20.7 mph N/A   Overcast
4:15 PM 50.0 °F - 39.2 °F 66% 29.67 in 10.0 mi SW 15.0 mph 25.3 mph N/A   Overcast
4:35 PM 51.8 °F - 39.2 °F 62% 29.67 in 10.0 mi SW 17.3 mph 21.9 mph N/A   Overcast
4:55 PM 51.8 °F - 39.2 °F 62% 29.68 in 10.0 mi WSW 16.1 mph 24.2 mph N/A   Overcast
5:15 PM 50.0 °F - 41.0 °F 71% 29.69 in 10.0 mi SW 17.3 mph 23.0 mph N/A   Overcast
5:35 PM 51.8 °F - 41.0 °F 67% 29.69 in 10.0 mi WSW 15.0 mph 24.2 mph N/A   Overcast
5:55 PM 51.8 °F - 39.2 °F 62% 29.70 in 10.0 mi SW 12.7 mph 23.0 mph N/A   Overcast
6:15 PM 51.8 °F - 39.2 °F 62% 29.71 in 10.0 mi SW 15.0 mph 19.6 mph N/A   Overcast
6:35 PM 50.0 °F - 39.2 °F 66% 29.72 in 10.0 mi WSW 15.0 mph 27.6 mph N/A   Overcast
6:55 PM 50.0 °F - 39.2 °F 66% 29.72 in 10.0 mi WSW 16.1 mph 20.7 mph N/A   Overcast
7:15 PM 50.0 °F - 39.2 °F 66% 29.73 in 10.0 mi WSW 11.5 mph 19.6 mph N/A   Overcast
7:35 PM 48.2 °F - 42.8 °F 82% 29.75 in 8.0 mi WSW 10.4 mph 18.4 mph N/A   Overcast
7:55 PM 48.2 °F - 42.8 °F 82% 29.75 in 10.0 mi WSW 11.5 mph 18.4 mph N/A   Overcast
8:15 PM 46.4 °F 42.4 °F 42.8 °F 87% 29.76 in 9.0 mi WSW 8.1 mph 16.1 mph N/A   Overcast
8:35 PM 46.4 °F 42.4 °F 42.8 °F 87% 29.77 in 10.0 mi West 8.1 mph - N/A   Overcast
8:55 PM 46.4 °F 42.9 °F 42.8 °F 87% 29.77 in 10.0 mi WSW 6.9 mph - N/A   Overcast
9:15 PM 46.4 °F 41.9 °F 42.8 °F 87% 29.78 in 10.0 mi WSW 9.2 mph - N/A   Overcast
9:35 PM 46.4 °F 41.9 °F 42.8 °F 87% 29.79 in 10.0 mi WSW 9.2 mph - N/A   Overcast
9:55 PM 46.4 °F 41.1 °F 42.8 °F 87% 29.79 in 10.0 mi SW 11.5 mph - N/A   Overcast
10:15 PM 46.4 °F 41.9 °F 42.8 °F 87% 29.80 in 10.0 mi WSW 9.2 mph - N/A   Overcast
10:35 PM 46.4 °F 41.9 °F 42.8 °F 87% 29.80 in 10.0 mi West 9.2 mph - N/A   Overcast
10:55 PM 46.4 °F 41.1 °F 42.8 °F 87% 29.80 in 10.0 mi West 11.5 mph - N/A   Overcast
11:15 PM 46.4 °F 41.9 °F 42.8 °F 87% 29.80 in 7.0 mi West 9.2 mph 17.3 mph N/A   Overcast
11:35 PM 46.4 °F 41.5 °F 42.8 °F 87% 29.80 in 5.0 mi West 10.4 mph - N/A   Overcast
11:55 PM 46.4 °F 42.9 °F 42.8 °F 87% 29.81 in 10.0 mi West 6.9 mph - N/A   Overcast